Nearby METAR Reports

 

KDAW - Rochester, New Hampshire, USA
Distance from station: SSE 10mi, 16km
Updated: Mon, 17-Jan-2022 4:51pm EST
Mostly cloudy
Mostly cloudy
 Wind from calm
Wind: Calm
Temperature: 39°F , 4°C
Dew Point: 30°F , -1°C
Humidity: 70%
Barometer: 29.04 inHg , 983.4 hPa
Clouds: Mostly cloudy
Visibility: 10 miles , 16 km
Cloud details: Mostly cloudy 3200 ft
2022/01/17 21:51 KDAW 172151Z AUTO 00000KT 10SM BKN032 04/M01 A2904 RMK AO2 SLP832 T00441006
KSFM - Sanford Muni, Maine, USA
Distance from station: E 13mi, 21km
Updated: Mon, 17-Jan-2022 4:56pm EST
Overcast
Overcast
 Wind from SSW
Wind: SSW 6 mph , 9 km/h
Temperature: 39°F , 4°C
Wind Chill: 35°F , 2°C
Dew Point: 30°F , -1°C
Humidity: 70%
Barometer: 29.05 inHg , 983.7 hPa
Clouds: Overcast
Visibility: 10 miles , 16 km
Cloud details: Overcast 4100 ft
2022/01/17 21:56 KSFM 172156Z AUTO 21005KT 10SM OVC041 04/M01 A2905 RMK AO2 SLP842 T00441006
 
KLCI - Laconia Muni, New Hampshire, USA
Distance from station: WNW 24mi, 39km
Updated: Mon, 17-Jan-2022 4:56pm EST
Mostly cloudy
Mostly cloudy
 Wind from SSW
Wind: SSW 13 mph , 20 km/h, Gust: 21 mph , 33 km/h
Temperature: 39°F , 4°C
Wind Chill: 31°F , -1°C
Dew Point: 30°F , -1°C
Humidity: 70%
Barometer: 29.01 inHg , 982.4 hPa
Clouds: Mostly cloudy
Visibility: 10 miles , 16 km
Cloud details: Mostly cloudy 3300 ft
2022/01/17 21:56 KLCI 172156Z AUTO 21011G18KT 10SM BKN033 04/M01 A2901 RMK AO2 SLP830 T00391011